sensor_id;sensor_type;location;lat;lon;timestamp;P1;durP1;ratioP1;P2;durP2;ratioP2
1837;SDS011;918;50.796;6.772;2023-04-03T00:01:04;3.20;;;2.90;;
1837;SDS011;918;50.796;6.772;2023-04-03T00:03:30;3.00;;;2.70;;
1837;SDS011;918;50.796;6.772;2023-04-03T00:05:55;3.90;;;2.40;;
1837;SDS011;918;50.796;6.772;2023-04-03T00:08:21;3.63;;;2.70;;
1837;SDS011;918;50.796;6.772;2023-04-03T00:10:46;3.20;;;2.63;;
1837;SDS011;918;50.796;6.772;2023-04-03T00:13:12;2.83;;;2.60;;
1837;SDS011;918;50.796;6.772;2023-04-03T00:15:38;2.90;;;2.70;;
1837;SDS011;918;50.796;6.772;2023-04-03T00:18:04;4.10;;;2.90;;
1837;SDS011;918;50.796;6.772;2023-04-03T00:20:29;3.57;;;3.27;;
1837;SDS011;918;50.796;6.772;2023-04-03T00:22:54;3.00;;;2.70;;
1837;SDS011;918;50.796;6.772;2023-04-03T00:25:20;4.13;;;2.23;;
1837;SDS011;918;50.796;6.772;2023-04-03T00:27:46;3.33;;;2.83;;
1837;SDS011;918;50.796;6.772;2023-04-03T00:30:13;4.00;;;3.60;;
1837;SDS011;918;50.796;6.772;2023-04-03T00:32:39;3.57;;;3.37;;
1837;SDS011;918;50.796;6.772;2023-04-03T00:35:05;3.53;;;2.73;;
1837;SDS011;918;50.796;6.772;2023-04-03T00:37:30;6.37;;;3.17;;
1837;SDS011;918;50.796;6.772;2023-04-03T00:39:56;2.37;;;2.27;;
1837;SDS011;918;50.796;6.772;2023-04-03T00:42:21;3.27;;;2.53;;
1837;SDS011;918;50.796;6.772;2023-04-03T00:47:13;2.50;;;2.30;;
1837;SDS011;918;50.796;6.772;2023-04-03T00:49:40;5.43;;;2.43;;
1837;SDS011;918;50.796;6.772;2023-04-03T00:52:06;3.93;;;2.63;;
1837;SDS011;918;50.796;6.772;2023-04-03T00:54:34;2.80;;;2.47;;
1837;SDS011;918;50.796;6.772;2023-04-03T00:57:01;2.20;;;2.00;;
1837;SDS011;918;50.796;6.772;2023-04-03T00:59:27;3.07;;;2.20;;
1837;SDS011;918;50.796;6.772;2023-04-03T01:01:55;2.03;;;1.93;;
1837;SDS011;918;50.796;6.772;2023-04-03T01:04:31;2.40;;;2.20;;
1837;SDS011;918;50.796;6.772;2023-04-03T01:07:02;2.23;;;2.07;;
1837;SDS011;918;50.796;6.772;2023-04-03T01:09:30;2.53;;;2.33;;
1837;SDS011;918;50.796;6.772;2023-04-03T01:14:52;3.10;;;1.93;;
1837;SDS011;918;50.796;6.772;2023-04-03T01:18:01;3.27;;;2.20;;
1837;SDS011;918;50.796;6.772;2023-04-03T01:25:39;7.50;;;2.63;;
1837;SDS011;918;50.796;6.772;2023-04-03T01:28:09;3.20;;;2.43;;
1837;SDS011;918;50.796;6.772;2023-04-03T01:30:47;3.47;;;2.83;;
1837;SDS011;918;50.796;6.772;2023-04-03T01:33:15;2.50;;;2.27;;
1837;SDS011;918;50.796;6.772;2023-04-03T01:35:40;2.67;;;2.43;;
1837;SDS011;918;50.796;6.772;2023-04-03T01:38:06;2.90;;;2.70;;
1837;SDS011;918;50.796;6.772;2023-04-03T01:40:31;3.17;;;2.40;;
1837;SDS011;918;50.796;6.772;2023-04-03T01:42:57;2.20;;;2.10;;
1837;SDS011;918;50.796;6.772;2023-04-03T01:45:22;3.17;;;2.23;;
1837;SDS011;918;50.796;6.772;2023-04-03T01:47:48;2.53;;;2.43;;
1837;SDS011;918;50.796;6.772;2023-04-03T01:50:13;3.00;;;2.70;;
1837;SDS011;918;50.796;6.772;2023-04-03T01:52:38;3.93;;;2.50;;
1837;SDS011;918;50.796;6.772;2023-04-03T01:55:04;3.23;;;3.00;;
1837;SDS011;918;50.796;6.772;2023-04-03T01:57:29;4.07;;;2.40;;
1837;SDS011;918;50.796;6.772;2023-04-03T01:59:55;4.23;;;2.37;;
1837;SDS011;918;50.796;6.772;2023-04-03T02:02:20;2.87;;;2.60;;
1837;SDS011;918;50.796;6.772;2023-04-03T02:04:45;5.70;;;3.70;;
1837;SDS011;918;50.796;6.772;2023-04-03T02:07:11;2.87;;;2.60;;
1837;SDS011;918;50.796;6.772;2023-04-03T02:09:36;5.33;;;3.03;;
1837;SDS011;918;50.796;6.772;2023-04-03T02:12:01;3.33;;;3.03;;
1837;SDS011;918;50.796;6.772;2023-04-03T02:14:27;3.53;;;3.23;;
1837;SDS011;918;50.796;6.772;2023-04-03T02:16:52;3.33;;;3.07;;
1837;SDS011;918;50.796;6.772;2023-04-03T02:19:17;3.03;;;2.83;;
1837;SDS011;918;50.796;6.772;2023-04-03T02:21:43;2.60;;;2.50;;
1837;SDS011;918;50.796;6.772;2023-04-03T02:24:08;5.03;;;3.23;;
1837;SDS011;918;50.796;6.772;2023-04-03T02:26:33;3.50;;;3.20;;
1837;SDS011;918;50.796;6.772;2023-04-03T02:28:58;3.30;;;3.00;;
1837;SDS011;918;50.796;6.772;2023-04-03T02:31:24;5.43;;;3.20;;
1837;SDS011;918;50.796;6.772;2023-04-03T02:33:49;4.57;;;4.17;;
1837;SDS011;918;50.796;6.772;2023-04-03T02:36:15;3.37;;;3.07;;
1837;SDS011;918;50.796;6.772;2023-04-03T02:38:40;5.37;;;3.07;;
1837;SDS011;918;50.796;6.772;2023-04-03T02:41:06;4.13;;;2.90;;
1837;SDS011;918;50.796;6.772;2023-04-03T02:43:33;3.27;;;3.07;;
1837;SDS011;918;50.796;6.772;2023-04-03T02:45:59;4.10;;;3.70;;
1837;SDS011;918;50.796;6.772;2023-04-03T02:48:24;3.13;;;2.87;;
1837;SDS011;918;50.796;6.772;2023-04-03T02:50:50;3.20;;;2.90;;
1837;SDS011;918;50.796;6.772;2023-04-03T02:53:15;3.43;;;3.13;;
1837;SDS011;918;50.796;6.772;2023-04-03T02:55:41;4.80;;;3.50;;
1837;SDS011;918;50.796;6.772;2023-04-03T02:58:06;3.63;;;3.33;;
1837;SDS011;918;50.796;6.772;2023-04-03T03:00:32;5.03;;;3.40;;
1837;SDS011;918;50.796;6.772;2023-04-03T03:02:57;3.87;;;3.10;;
1837;SDS011;918;50.796;6.772;2023-04-03T03:05:22;3.90;;;2.97;;
1837;SDS011;918;50.796;6.772;2023-04-03T03:07:48;5.07;;;4.67;;
1837;SDS011;918;50.796;6.772;2023-04-03T03:10:13;6.40;;;5.53;;
1837;SDS011;918;50.796;6.772;2023-04-03T03:12:38;5.20;;;4.30;;
1837;SDS011;918;50.796;6.772;2023-04-03T03:15:05;4.13;;;3.83;;
1837;SDS011;918;50.796;6.772;2023-04-03T03:17:32;3.90;;;3.60;;
1837;SDS011;918;50.796;6.772;2023-04-03T03:19:57;4.23;;;3.73;;
1837;SDS011;918;50.796;6.772;2023-04-03T03:22:23;4.00;;;3.70;;
1837;SDS011;918;50.796;6.772;2023-04-03T03:24:48;5.20;;;4.70;;
1837;SDS011;918;50.796;6.772;2023-04-03T03:27:13;5.07;;;3.90;;
1837;SDS011;918;50.796;6.772;2023-04-03T03:29:41;4.47;;;4.03;;
1837;SDS011;918;50.796;6.772;2023-04-03T03:32:06;4.30;;;4.00;;
1837;SDS011;918;50.796;6.772;2023-04-03T03:34:31;6.20;;;4.00;;
1837;SDS011;918;50.796;6.772;2023-04-03T03:36:57;4.47;;;4.07;;
1837;SDS011;918;50.796;6.772;2023-04-03T03:39:22;5.30;;;4.20;;
1837;SDS011;918;50.796;6.772;2023-04-03T03:41:47;4.90;;;4.50;;
1837;SDS011;918;50.796;6.772;2023-04-03T03:44:14;5.97;;;5.10;;
1837;SDS011;918;50.796;6.772;2023-04-03T03:46:39;6.20;;;4.73;;
1837;SDS011;918;50.796;6.772;2023-04-03T03:49:05;5.30;;;4.90;;
1837;SDS011;918;50.796;6.772;2023-04-03T03:51:30;5.43;;;4.60;;
1837;SDS011;918;50.796;6.772;2023-04-03T03:53:55;4.40;;;4.00;;
1837;SDS011;918;50.796;6.772;2023-04-03T03:56:20;5.20;;;4.80;;
1837;SDS011;918;50.796;6.772;2023-04-03T03:58:46;5.80;;;5.30;;
1837;SDS011;918;50.796;6.772;2023-04-03T04:01:12;6.33;;;4.90;;
1837;SDS011;918;50.796;6.772;2023-04-03T04:03:37;4.70;;;4.33;;
1837;SDS011;918;50.796;6.772;2023-04-03T04:06:03;5.30;;;4.90;;
1837;SDS011;918;50.796;6.772;2023-04-03T04:08:28;5.50;;;5.20;;
1837;SDS011;918;50.796;6.772;2023-04-03T04:10:53;5.57;;;5.17;;
1837;SDS011;918;50.796;6.772;2023-04-03T04:13:19;5.83;;;5.40;;
1837;SDS011;918;50.796;6.772;2023-04-03T04:15:44;6.90;;;6.30;;
1837;SDS011;918;50.796;6.772;2023-04-03T04:18:10;6.37;;;5.97;;
1837;SDS011;918;50.796;6.772;2023-04-03T04:20:35;6.73;;;6.33;;
1837;SDS011;918;50.796;6.772;2023-04-03T04:23:00;6.50;;;6.00;;
1837;SDS011;918;50.796;6.772;2023-04-03T04:25:25;6.37;;;5.87;;
1837;SDS011;918;50.796;6.772;2023-04-03T04:27:51;5.93;;;5.47;;
1837;SDS011;918;50.796;6.772;2023-04-03T04:30:16;6.77;;;6.13;;
1837;SDS011;918;50.796;6.772;2023-04-03T04:32:42;8.47;;;6.57;;
1837;SDS011;918;50.796;6.772;2023-04-03T04:35:07;6.27;;;5.90;;
1837;SDS011;918;50.796;6.772;2023-04-03T04:37:32;7.17;;;6.57;;
1837;SDS011;918;50.796;6.772;2023-04-03T04:39:58;7.23;;;6.20;;
1837;SDS011;918;50.796;6.772;2023-04-03T04:42:23;7.20;;;6.57;;
1837;SDS011;918;50.796;6.772;2023-04-03T04:44:48;7.40;;;6.80;;
1837;SDS011;918;50.796;6.772;2023-04-03T04:47:14;5.97;;;5.57;;
1837;SDS011;918;50.796;6.772;2023-04-03T04:49:39;6.87;;;6.27;;
1837;SDS011;918;50.796;6.772;2023-04-03T04:52:04;6.80;;;6.27;;
1837;SDS011;918;50.796;6.772;2023-04-03T04:54:30;6.53;;;6.03;;
1837;SDS011;918;50.796;6.772;2023-04-03T04:56:55;6.30;;;5.83;;
1837;SDS011;918;50.796;6.772;2023-04-03T04:59:20;7.20;;;6.47;;
1837;SDS011;918;50.796;6.772;2023-04-03T05:01:46;6.40;;;5.90;;
1837;SDS011;918;50.796;6.772;2023-04-03T05:04:11;6.00;;;5.40;;
1837;SDS011;918;50.796;6.772;2023-04-03T05:06:37;6.20;;;5.70;;
1837;SDS011;918;50.796;6.772;2023-04-03T05:09:02;7.47;;;6.50;;
1837;SDS011;918;50.796;6.772;2023-04-03T05:11:28;5.73;;;5.27;;
1837;SDS011;918;50.796;6.772;2023-04-03T05:13:53;6.70;;;5.77;;
1837;SDS011;918;50.796;6.772;2023-04-03T05:16:18;6.07;;;5.60;;
1837;SDS011;918;50.796;6.772;2023-04-03T05:18:43;5.50;;;5.00;;
1837;SDS011;918;50.796;6.772;2023-04-03T05:21:09;6.40;;;5.80;;
1837;SDS011;918;50.796;6.772;2023-04-03T05:23:34;6.40;;;5.90;;
1837;SDS011;918;50.796;6.772;2023-04-03T05:25:59;5.40;;;5.10;;
1837;SDS011;918;50.796;6.772;2023-04-03T05:28:25;5.47;;;4.87;;
1837;SDS011;918;50.796;6.772;2023-04-03T05:30:54;6.40;;;5.80;;
1837;SDS011;918;50.796;6.772;2023-04-03T05:33:20;5.50;;;5.10;;
1837;SDS011;918;50.796;6.772;2023-04-03T05:35:46;5.23;;;4.83;;
1837;SDS011;918;50.796;6.772;2023-04-03T05:38:11;6.90;;;5.83;;
1837;SDS011;918;50.796;6.772;2023-04-03T05:40:36;5.37;;;4.87;;
1837;SDS011;918;50.796;6.772;2023-04-03T05:43:02;4.87;;;4.57;;
1837;SDS011;918;50.796;6.772;2023-04-03T05:45:27;5.87;;;4.77;;
1837;SDS011;918;50.796;6.772;2023-04-03T05:47:53;4.53;;;4.13;;
1837;SDS011;918;50.796;6.772;2023-04-03T05:50:18;5.43;;;4.70;;
1837;SDS011;918;50.796;6.772;2023-04-03T05:52:44;6.13;;;5.60;;
1837;SDS011;918;50.796;6.772;2023-04-03T05:55:11;6.27;;;5.70;;
1837;SDS011;918;50.796;6.772;2023-04-03T05:57:36;5.10;;;4.73;;
1837;SDS011;918;50.796;6.772;2023-04-03T06:00:03;5.10;;;4.70;;
1837;SDS011;918;50.796;6.772;2023-04-03T06:02:32;5.50;;;5.10;;
1837;SDS011;918;50.796;6.772;2023-04-03T06:04:57;6.50;;;5.60;;
1837;SDS011;918;50.796;6.772;2023-04-03T06:07:23;6.37;;;5.13;;
1837;SDS011;918;50.796;6.772;2023-04-03T06:09:52;4.87;;;4.40;;
1837;SDS011;918;50.796;6.772;2023-04-03T06:12:18;5.83;;;4.10;;
1837;SDS011;918;50.796;6.772;2023-04-03T06:14:44;4.60;;;3.83;;
1837;SDS011;918;50.796;6.772;2023-04-03T06:17:09;4.20;;;3.97;;
1837;SDS011;918;50.796;6.772;2023-04-03T06:19:37;3.60;;;3.30;;
1837;SDS011;918;50.796;6.772;2023-04-03T06:22:02;3.30;;;3.00;;
1837;SDS011;918;50.796;6.772;2023-04-03T06:24:28;4.07;;;3.67;;
1837;SDS011;918;50.796;6.772;2023-04-03T06:26:53;3.80;;;3.50;;
1837;SDS011;918;50.796;6.772;2023-04-03T06:29:19;3.07;;;2.83;;
1837;SDS011;918;50.796;6.772;2023-04-03T06:31:45;3.17;;;2.97;;
1837;SDS011;918;50.796;6.772;2023-04-03T06:34:11;3.17;;;2.87;;
1837;SDS011;918;50.796;6.772;2023-04-03T06:36:36;2.67;;;2.47;;
1837;SDS011;918;50.796;6.772;2023-04-03T06:39:01;3.00;;;2.70;;
1837;SDS011;918;50.796;6.772;2023-04-03T06:41:28;3.10;;;2.67;;
1837;SDS011;918;50.796;6.772;2023-04-03T06:43:53;4.43;;;2.60;;
1837;SDS011;918;50.796;6.772;2023-04-03T06:46:21;2.90;;;2.30;;
1837;SDS011;918;50.796;6.772;2023-04-03T06:48:47;2.13;;;1.97;;
1837;SDS011;918;50.796;6.772;2023-04-03T06:51:17;2.50;;;2.30;;
1837;SDS011;918;50.796;6.772;2023-04-03T06:53:44;2.90;;;2.70;;
1837;SDS011;918;50.796;6.772;2023-04-03T06:56:10;2.40;;;2.00;;
1837;SDS011;918;50.796;6.772;2023-04-03T06:58:36;6.37;;;2.70;;
1837;SDS011;918;50.796;6.772;2023-04-03T07:01:01;3.13;;;1.90;;
1837;SDS011;918;50.796;6.772;2023-04-03T07:03:26;3.80;;;2.40;;
1837;SDS011;918;50.796;6.772;2023-04-03T07:05:51;3.00;;;2.00;;
1837;SDS011;918;50.796;6.772;2023-04-03T07:08:17;3.43;;;2.30;;
1837;SDS011;918;50.796;6.772;2023-04-03T07:10:42;2.93;;;2.23;;
1837;SDS011;918;50.796;6.772;2023-04-03T07:13:07;2.20;;;1.70;;
1837;SDS011;918;50.796;6.772;2023-04-03T07:15:32;3.07;;;2.00;;
1837;SDS011;918;50.796;6.772;2023-04-03T07:17:58;4.33;;;2.30;;
1837;SDS011;918;50.796;6.772;2023-04-03T07:20:23;2.83;;;2.63;;
1837;SDS011;918;50.796;6.772;2023-04-03T07:22:49;4.47;;;2.47;;
1837;SDS011;918;50.796;6.772;2023-04-03T07:25:15;2.83;;;2.07;;
1837;SDS011;918;50.796;6.772;2023-04-03T07:27:41;3.27;;;2.20;;
1837;SDS011;918;50.796;6.772;2023-04-03T07:30:06;2.87;;;1.83;;
1837;SDS011;918;50.796;6.772;2023-04-03T07:32:32;1.80;;;1.70;;
1837;SDS011;918;50.796;6.772;2023-04-03T07:34:58;2.20;;;1.93;;
1837;SDS011;918;50.796;6.772;2023-04-03T07:37:23;3.03;;;2.10;;
1837;SDS011;918;50.796;6.772;2023-04-03T07:39:48;2.50;;;2.13;;
1837;SDS011;918;50.796;6.772;2023-04-03T07:42:13;2.13;;;2.00;;
1837;SDS011;918;50.796;6.772;2023-04-03T07:44:39;3.33;;;2.67;;
1837;SDS011;918;50.796;6.772;2023-04-03T07:47:05;3.40;;;2.20;;
1837;SDS011;918;50.796;6.772;2023-04-03T07:49:30;2.83;;;1.90;;
1837;SDS011;918;50.796;6.772;2023-04-03T07:51:57;2.20;;;1.73;;
1837;SDS011;918;50.796;6.772;2023-04-03T07:54:23;2.80;;;1.97;;
1837;SDS011;918;50.796;6.772;2023-04-03T07:56:48;2.13;;;1.93;;
1837;SDS011;918;50.796;6.772;2023-04-03T07:59:14;3.20;;;2.60;;
1837;SDS011;918;50.796;6.772;2023-04-03T08:01:39;3.90;;;2.30;;
1837;SDS011;918;50.796;6.772;2023-04-03T08:04:05;2.47;;;1.63;;
1837;SDS011;918;50.796;6.772;2023-04-03T08:06:31;3.60;;;2.10;;
1837;SDS011;918;50.796;6.772;2023-04-03T08:08:59;2.70;;;1.57;;
1837;SDS011;918;50.796;6.772;2023-04-03T08:11:25;4.67;;;2.10;;
1837;SDS011;918;50.796;6.772;2023-04-03T08:13:51;4.03;;;1.87;;
1837;SDS011;918;50.796;6.772;2023-04-03T08:16:17;1.90;;;1.80;;
1837;SDS011;918;50.796;6.772;2023-04-03T08:18:43;3.73;;;2.37;;
1837;SDS011;918;50.796;6.772;2023-04-03T08:21:09;2.00;;;1.73;;
1837;SDS011;918;50.796;6.772;2023-04-03T08:23:36;2.73;;;2.10;;
1837;SDS011;918;50.796;6.772;2023-04-03T08:26:06;3.83;;;2.20;;
1837;SDS011;918;50.796;6.772;2023-04-03T08:28:35;2.67;;;2.30;;
1837;SDS011;918;50.796;6.772;2023-04-03T08:31:05;4.67;;;2.30;;
1837;SDS011;918;50.796;6.772;2023-04-03T08:33:32;2.97;;;2.20;;
1837;SDS011;918;50.796;6.772;2023-04-03T08:35:58;3.27;;;2.17;;
1837;SDS011;918;50.796;6.772;2023-04-03T08:38:24;3.60;;;2.27;;
1837;SDS011;918;50.796;6.772;2023-04-03T08:41:04;3.17;;;2.00;;
1837;SDS011;918;50.796;6.772;2023-04-03T08:44:00;2.30;;;1.80;;
1837;SDS011;918;50.796;6.772;2023-04-03T08:46:52;2.20;;;2.00;;
1837;SDS011;918;50.796;6.772;2023-04-03T08:49:31;7.13;;;3.10;;
1837;SDS011;918;50.796;6.772;2023-04-03T08:51:59;2.83;;;1.83;;
1837;SDS011;918;50.796;6.772;2023-04-03T08:54:29;3.00;;;1.77;;
1837;SDS011;918;50.796;6.772;2023-04-03T08:56:57;1.83;;;1.57;;
1837;SDS011;918;50.796;6.772;2023-04-03T08:59:26;3.80;;;2.17;;
1837;SDS011;918;50.796;6.772;2023-04-03T09:01:54;2.53;;;1.70;;
1837;SDS011;918;50.796;6.772;2023-04-03T09:04:19;3.77;;;1.83;;
1837;SDS011;918;50.796;6.772;2023-04-03T09:06:49;3.60;;;2.20;;
1837;SDS011;918;50.796;6.772;2023-04-03T09:09:35;3.63;;;1.97;;
1837;SDS011;918;50.796;6.772;2023-04-03T09:14:39;2.53;;;1.80;;
1837;SDS011;918;50.796;6.772;2023-04-03T09:20:11;2.73;;;2.00;;
1837;SDS011;918;50.796;6.772;2023-04-03T09:22:42;3.40;;;2.17;;
1837;SDS011;918;50.796;6.772;2023-04-03T09:27:41;4.40;;;2.10;;
1837;SDS011;918;50.796;6.772;2023-04-03T09:30:16;1.93;;;1.50;;
1837;SDS011;918;50.796;6.772;2023-04-03T09:32:47;1.87;;;1.77;;
1837;SDS011;918;50.796;6.772;2023-04-03T09:37:40;2.13;;;1.97;;
1837;SDS011;918;50.796;6.772;2023-04-03T09:42:51;3.53;;;2.07;;
1837;SDS011;918;50.796;6.772;2023-04-03T09:45:26;3.23;;;1.57;;
1837;SDS011;918;50.796;6.772;2023-04-03T09:48:14;2.57;;;1.37;;
1837;SDS011;918;50.796;6.772;2023-04-03T09:50:52;6.30;;;2.27;;
1837;SDS011;918;50.796;6.772;2023-04-03T09:53:42;3.27;;;2.00;;
1837;SDS011;918;50.796;6.772;2023-04-03T10:01:23;3.80;;;1.40;;
1837;SDS011;918;50.796;6.772;2023-04-03T10:06:48;3.60;;;1.83;;
1837;SDS011;918;50.796;6.772;2023-04-03T10:12:02;1.70;;;1.30;;
1837;SDS011;918;50.796;6.772;2023-04-03T10:14:30;6.47;;;1.53;;
1837;SDS011;918;50.796;6.772;2023-04-03T10:19:35;2.00;;;1.27;;
1837;SDS011;918;50.796;6.772;2023-04-03T10:32:54;2.80;;;1.73;;
1837;SDS011;918;50.796;6.772;2023-04-03T10:35:44;2.67;;;1.67;;
1837;SDS011;918;50.796;6.772;2023-04-03T10:48:29;3.73;;;1.20;;
1837;SDS011;918;50.796;6.772;2023-04-03T10:54:08;2.13;;;1.53;;
1837;SDS011;918;50.796;6.772;2023-04-03T10:59:30;2.23;;;1.47;;
1837;SDS011;918;50.796;6.772;2023-04-03T11:01:59;3.83;;;1.50;;
1837;SDS011;918;50.796;6.772;2023-04-03T11:04:30;3.67;;;1.77;;
1837;SDS011;918;50.796;6.772;2023-04-03T11:07:02;2.67;;;1.60;;
1837;SDS011;918;50.796;6.772;2023-04-03T11:09:36;1.60;;;1.50;;
1837;SDS011;918;50.796;6.772;2023-04-03T11:12:06;1.63;;;1.27;;
1837;SDS011;918;50.796;6.772;2023-04-03T11:14:38;2.23;;;1.23;;
1837;SDS011;918;50.796;6.772;2023-04-03T11:17:11;3.83;;;1.70;;
1837;SDS011;918;50.796;6.772;2023-04-03T11:19:49;3.10;;;1.50;;
1837;SDS011;918;50.796;6.772;2023-04-03T11:22:23;1.90;;;1.40;;
1837;SDS011;918;50.796;6.772;2023-04-03T11:27:48;1.30;;;1.20;;
1837;SDS011;918;50.796;6.772;2023-04-03T11:33:23;2.40;;;1.60;;
1837;SDS011;918;50.796;6.772;2023-04-03T11:35:55;2.17;;;1.30;;
1837;SDS011;918;50.796;6.772;2023-04-03T11:38:28;2.63;;;1.07;;
1837;SDS011;918;50.796;6.772;2023-04-03T11:40:59;1.33;;;1.10;;
1837;SDS011;918;50.796;6.772;2023-04-03T11:43:26;2.23;;;1.40;;
1837;SDS011;918;50.796;6.772;2023-04-03T11:50:52;2.17;;;1.40;;
1837;SDS011;918;50.796;6.772;2023-04-03T12:05:48;1.73;;;1.33;;
1837;SDS011;918;50.796;6.772;2023-04-03T12:08:24;2.20;;;2.00;;
1837;SDS011;918;50.796;6.772;2023-04-03T12:16:19;2.00;;;1.37;;
1837;SDS011;918;50.796;6.772;2023-04-03T12:21:15;2.20;;;1.43;;
1837;SDS011;918;50.796;6.772;2023-04-03T12:34:53;2.70;;;1.60;;
1837;SDS011;918;50.796;6.772;2023-04-03T12:37:48;1.93;;;1.70;;
1837;SDS011;918;50.796;6.772;2023-04-03T12:43:28;1.70;;;1.40;;
1837;SDS011;918;50.796;6.772;2023-04-03T12:48:37;3.40;;;1.67;;
1837;SDS011;918;50.796;6.772;2023-04-03T12:51:04;1.63;;;1.13;;
1837;SDS011;918;50.796;6.772;2023-04-03T12:53:33;5.20;;;1.57;;
1837;SDS011;918;50.796;6.772;2023-04-03T12:58:48;1.23;;;1.00;;
1837;SDS011;918;50.796;6.772;2023-04-03T13:01:22;2.73;;;1.17;;
1837;SDS011;918;50.796;6.772;2023-04-03T13:03:50;1.40;;;1.30;;
1837;SDS011;918;50.796;6.772;2023-04-03T13:06:18;0.90;;;0.90;;
1837;SDS011;918;50.796;6.772;2023-04-03T13:08:52;2.37;;;1.27;;
1837;SDS011;918;50.796;6.772;2023-04-03T13:11:19;3.00;;;1.27;;
1837;SDS011;918;50.796;6.772;2023-04-03T13:14:02;1.73;;;1.20;;
1837;SDS011;918;50.796;6.772;2023-04-03T13:16:30;2.27;;;1.73;;
1837;SDS011;918;50.796;6.772;2023-04-03T13:18:57;1.13;;;1.03;;
1837;SDS011;918;50.796;6.772;2023-04-03T13:21:29;1.73;;;1.40;;
1837;SDS011;918;50.796;6.772;2023-04-03T13:23:57;2.00;;;1.20;;
1837;SDS011;918;50.796;6.772;2023-04-03T13:26:25;1.30;;;1.20;;
1837;SDS011;918;50.796;6.772;2023-04-03T13:28:54;2.50;;;1.57;;
1837;SDS011;918;50.796;6.772;2023-04-03T13:31:25;1.77;;;1.50;;
1837;SDS011;918;50.796;6.772;2023-04-03T13:34:06;3.30;;;1.10;;
1837;SDS011;918;50.796;6.772;2023-04-03T13:36:38;1.23;;;1.00;;
1837;SDS011;918;50.796;6.772;2023-04-03T13:41:36;2.20;;;1.90;;
1837;SDS011;918;50.796;6.772;2023-04-03T13:44:16;3.90;;;3.23;;
1837;SDS011;918;50.796;6.772;2023-04-03T13:47:37;1.50;;;1.17;;
1837;SDS011;918;50.796;6.772;2023-04-03T13:49:37;1.47;;;1.33;;
1837;SDS011;918;50.796;6.772;2023-04-03T13:54:54;2.30;;;2.10;;
1837;SDS011;918;50.796;6.772;2023-04-03T13:57:21;2.90;;;1.50;;
1837;SDS011;918;50.796;6.772;2023-04-03T13:59:47;1.87;;;1.23;;
1837;SDS011;918;50.796;6.772;2023-04-03T14:02:14;1.40;;;1.30;;
1837;SDS011;918;50.796;6.772;2023-04-03T14:04:48;1.20;;;1.03;;
1837;SDS011;918;50.796;6.772;2023-04-03T14:07:18;1.80;;;1.53;;
1837;SDS011;918;50.796;6.772;2023-04-03T14:09:44;2.20;;;1.50;;
1837;SDS011;918;50.796;6.772;2023-04-03T14:15:23;1.70;;;1.30;;
1837;SDS011;918;50.796;6.772;2023-04-03T14:17:50;1.93;;;1.60;;
1837;SDS011;918;50.796;6.772;2023-04-03T14:20:17;2.40;;;2.20;;
1837;SDS011;918;50.796;6.772;2023-04-03T14:22:44;3.77;;;1.60;;
1837;SDS011;918;50.796;6.772;2023-04-03T14:25:10;1.80;;;1.60;;
1837;SDS011;918;50.796;6.772;2023-04-03T14:27:36;2.37;;;1.80;;
1837;SDS011;918;50.796;6.772;2023-04-03T14:30:05;2.97;;;2.07;;
1837;SDS011;918;50.796;6.772;2023-04-03T14:32:32;3.30;;;2.30;;
1837;SDS011;918;50.796;6.772;2023-04-03T14:34:57;2.70;;;2.33;;
1837;SDS011;918;50.796;6.772;2023-04-03T14:37:24;2.10;;;2.00;;
1837;SDS011;918;50.796;6.772;2023-04-03T14:39:51;1.77;;;1.50;;
1837;SDS011;918;50.796;6.772;2023-04-03T14:42:26;2.20;;;1.83;;
1837;SDS011;918;50.796;6.772;2023-04-03T14:44:53;1.43;;;1.33;;
1837;SDS011;918;50.796;6.772;2023-04-03T14:47:20;1.80;;;1.70;;
1837;SDS011;918;50.796;6.772;2023-04-03T14:49:47;1.70;;;1.60;;
1837;SDS011;918;50.796;6.772;2023-04-03T14:52:18;3.53;;;1.80;;
1837;SDS011;918;50.796;6.772;2023-04-03T14:54:48;2.70;;;1.77;;
1837;SDS011;918;50.796;6.772;2023-04-03T14:57:15;2.90;;;1.80;;
1837;SDS011;918;50.796;6.772;2023-04-03T14:59:41;2.37;;;2.07;;
1837;SDS011;918;50.796;6.772;2023-04-03T15:04:54;3.77;;;1.87;;
1837;SDS011;918;50.796;6.772;2023-04-03T15:07:21;1.80;;;1.57;;
1837;SDS011;918;50.796;6.772;2023-04-03T15:09:47;2.20;;;1.73;;
1837;SDS011;918;50.796;6.772;2023-04-03T15:12:12;2.30;;;1.50;;
1837;SDS011;918;50.796;6.772;2023-04-03T15:14:37;1.63;;;1.47;;
1837;SDS011;918;50.796;6.772;2023-04-03T15:17:06;3.60;;;1.50;;
1837;SDS011;918;50.796;6.772;2023-04-03T15:19:36;1.47;;;1.30;;
1837;SDS011;918;50.796;6.772;2023-04-03T15:22:02;1.70;;;1.60;;
1837;SDS011;918;50.796;6.772;2023-04-03T15:24:28;1.50;;;1.40;;
1837;SDS011;918;50.796;6.772;2023-04-03T15:26:53;2.30;;;1.63;;
1837;SDS011;918;50.796;6.772;2023-04-03T15:29:19;1.67;;;1.50;;
1837;SDS011;918;50.796;6.772;2023-04-03T15:31:44;2.00;;;1.80;;
1837;SDS011;918;50.796;6.772;2023-04-03T15:34:09;2.70;;;2.03;;
1837;SDS011;918;50.796;6.772;2023-04-03T15:36:35;1.90;;;1.50;;
1837;SDS011;918;50.796;6.772;2023-04-03T15:39:00;2.20;;;2.00;;
1837;SDS011;918;50.796;6.772;2023-04-03T15:41:25;2.40;;;1.60;;
1837;SDS011;918;50.796;6.772;2023-04-03T15:43:50;1.70;;;1.40;;
1837;SDS011;918;50.796;6.772;2023-04-03T15:46:16;2.30;;;1.97;;
1837;SDS011;918;50.796;6.772;2023-04-03T15:48:41;1.73;;;1.47;;
1837;SDS011;918;50.796;6.772;2023-04-03T15:51:06;2.03;;;1.43;;
1837;SDS011;918;50.796;6.772;2023-04-03T15:53:32;2.03;;;1.77;;
1837;SDS011;918;50.796;6.772;2023-04-03T15:55:57;2.97;;;2.20;;
1837;SDS011;918;50.796;6.772;2023-04-03T15:58:22;3.60;;;2.63;;
1837;SDS011;918;50.796;6.772;2023-04-03T16:00:47;1.60;;;1.50;;
1837;SDS011;918;50.796;6.772;2023-04-03T16:03:15;2.93;;;1.60;;
1837;SDS011;918;50.796;6.772;2023-04-03T16:05:41;1.90;;;1.70;;
1837;SDS011;918;50.796;6.772;2023-04-03T16:08:07;1.60;;;1.50;;
1837;SDS011;918;50.796;6.772;2023-04-03T16:10:33;2.33;;;2.10;;
1837;SDS011;918;50.796;6.772;2023-04-03T16:12:59;2.40;;;2.10;;
1837;SDS011;918;50.796;6.772;2023-04-03T16:15:25;2.97;;;1.50;;
1837;SDS011;918;50.796;6.772;2023-04-03T16:17:51;1.57;;;1.47;;
1837;SDS011;918;50.796;6.772;2023-04-03T16:20:17;2.23;;;1.50;;
1837;SDS011;918;50.796;6.772;2023-04-03T16:22:43;1.60;;;1.30;;
1837;SDS011;918;50.796;6.772;2023-04-03T16:25:09;2.87;;;1.50;;
1837;SDS011;918;50.796;6.772;2023-04-03T16:27:35;2.10;;;1.73;;
1837;SDS011;918;50.796;6.772;2023-04-03T16:30:00;6.93;;;2.43;;
1837;SDS011;918;50.796;6.772;2023-04-03T16:32:26;1.40;;;1.30;;
1837;SDS011;918;50.796;6.772;2023-04-03T16:34:53;3.20;;;2.20;;
1837;SDS011;918;50.796;6.772;2023-04-03T16:37:18;2.70;;;1.60;;
1837;SDS011;918;50.796;6.772;2023-04-03T16:39:43;3.57;;;1.60;;
1837;SDS011;918;50.796;6.772;2023-04-03T16:42:08;2.00;;;1.77;;
1837;SDS011;918;50.796;6.772;2023-04-03T16:44:34;2.03;;;1.70;;
1837;SDS011;918;50.796;6.772;2023-04-03T16:47:00;1.50;;;1.40;;
1837;SDS011;918;50.796;6.772;2023-04-03T16:49:25;1.53;;;1.43;;
1837;SDS011;918;50.796;6.772;2023-04-03T16:51:55;2.40;;;1.43;;
1837;SDS011;918;50.796;6.772;2023-04-03T16:54:20;2.70;;;1.60;;
1837;SDS011;918;50.796;6.772;2023-04-03T16:56:45;2.70;;;2.17;;
1837;SDS011;918;50.796;6.772;2023-04-03T16:59:11;1.80;;;1.60;;
1837;SDS011;918;50.796;6.772;2023-04-03T17:01:36;1.80;;;1.40;;
1837;SDS011;918;50.796;6.772;2023-04-03T17:04:01;3.43;;;1.40;;
1837;SDS011;918;50.796;6.772;2023-04-03T17:06:27;2.87;;;1.20;;
1837;SDS011;918;50.796;6.772;2023-04-03T17:08:52;3.23;;;1.83;;
1837;SDS011;918;50.796;6.772;2023-04-03T17:11:17;2.10;;;1.60;;
1837;SDS011;918;50.796;6.772;2023-04-03T17:13:43;1.93;;;1.47;;
1837;SDS011;918;50.796;6.772;2023-04-03T17:16:09;3.43;;;1.40;;
1837;SDS011;918;50.796;6.772;2023-04-03T17:18:36;3.70;;;1.77;;
1837;SDS011;918;50.796;6.772;2023-04-03T17:21:02;3.00;;;1.37;;
1837;SDS011;918;50.796;6.772;2023-04-03T17:23:28;3.00;;;1.23;;
1837;SDS011;918;50.796;6.772;2023-04-03T17:25:54;1.80;;;1.30;;
1837;SDS011;918;50.796;6.772;2023-04-03T17:28:20;2.43;;;1.70;;
1837;SDS011;918;50.796;6.772;2023-04-03T17:30:49;1.77;;;1.53;;
1837;SDS011;918;50.796;6.772;2023-04-03T17:33:15;1.73;;;1.37;;
1837;SDS011;918;50.796;6.772;2023-04-03T17:35:40;2.17;;;2.00;;
1837;SDS011;918;50.796;6.772;2023-04-03T17:38:05;2.20;;;1.60;;